San Francisco, CA

5:46 AM PDT on October 31, 2014 (GMT -0700)
SOMA - Near Van Ness | Change Station
CLOSE
Current Station
Personal Weather Station
Location: San Francisco, CA
Elevation: 49 ft
Nearby Weather Stations

Elev 49 ft 37.77 °N, 122.42 °W | Updated 7 seconds ago

Mostly Cloudy
Mostly Cloudy
62.5 °F
Feels Like 62.5 °F
N
0.0
Wind Variable Wind from SSE
Gusts 0.0 mph

Today
High -- | Low -- °F
--% Chance of Precip.
Yesterday
High -- | Low -- °F
Precip. -- in
7:34 AM 6:11 PM
First Quarter, 55% visible
Pressure 29.85 in
Visibility 10.0 miles
Clouds Scattered Clouds 3500 ft
Mostly Cloudy 15000 ft
Dew Point 57 °F
Humidity 83%
Rainfall 0.00 in
Snow Depth Not available.
UV 0 out of 12
Pollen .50 out of 12
Air Quality Not available.
Flu Activity Not available.
METAR KSFO 311156Z 14007KT 10SM SCT035 BKN150 17/13 A2985 RMK AO2 SLP108 T01720133 10178 20167 58017

More Conditions Fewer Conditions

Pressure 29.85 in
Visibility 10.0 miles
Clouds Scattered Clouds 3500 ft
Mostly Cloudy 15000 ft
Dew Point 57 °F
Humidity 83%
Rainfall 0.00 in
Snow Depth Not available.
UV 0 out of 12
Pollen .50 out of 12
Air Quality Not available.
Flu Activity Not available.
METAR KSFO 311156Z 14007KT 10SM SCT035 BKN150 17/13 A2985 RMK AO2 SLP108 T01720133 10178 20167 58017

More Conditions Fewer Conditions

10-Day Weather Forecast

Almanac

Astronomy

Oct. 31, 2014 Rise Set
Actual Time
Civil Twilight
Nautical Twilight
Astronomical Twilight
Moon
Length of Visible Light
Length of Day
Tomorrow will be .
, % of the Moon is Illuminated

Today's Extremes

State Highs State Lows

Community

WunderPhotos

Upload Photos

1,766,593 photos uploaded!

WunderBlogs® & News

Nearby

Air Quality

  Air Quality AQ Index Pollutant
Not available.

Snow Depth

Station Depth Elevation

Earthquake Activity

City Distance Mag. Time & Date
Minimum magnitude displayed is 2.5.

Coastal Water Temperatures

Place Temperature

Nearby Weather Stations